Accueil
METAR-TAF:

METAR-TAF

Aéroports :

Eastmain, Québec, Canada

latitude: 52-14N, longitude: 078-31W, altitude: 7 m

Observation

Le bulletin a été fait il y a 7 heures et 15 minutes, à 21:00 UTC
Vent 11 kt de sud
Température -12°C
Humidité 78%
Pression 1026 hPa
Visibilité: 2.0 km
Ciel couvert à une hauteur de 1700 ft
neige faible

METAR: CZEM 112100Z 18011KT 1 1/4SM -SN OVC017 M12/M15 A3031 RMK SN2NS6 /SO2/LAST STFD OBS/NEXT 121400 UTC SLP265

Heure: 23:15 (04:15 UTC)


TAF: absent

Observations et prévisions météorologiques de plus de 4000 aéroports (messages METAR et TAF).

Les stations disponibles sont représentées par des disques jaunes et rouges sur la carte.

Passer la souris dessus pour voir le nom de la station.

Cliquer dessus pour voir les observations et prévisions météorologiques.

Pour changer de carte: cliquez sur les boutons verts avec une croix noire pour zoomer, sur le bouton vert avec un tiret pour effectuer un zoom arrière, ou sur les flèches vertes pour les cartes adjacentes.


METAR-TAF: